Time;durP1;ratioP1;P1;durP2;ratioP2;P2;SDS_P1;SDS_P2;PMS_P1;PMS_P2;Temp;Humidity;BMP_temperature;BMP_pressure;BME280_temperature;BME280_humidity;BME280_pressure;Samples;Min_cycle;Max_cycle;Signal;HPM_P1;HPM_P2
2022/07/06 00:01:57;;;;;;;12.43;8.53;;;;;;;17.53;93.88;100857.05;1714828;81;25835;-81
2022/07/06 00:04:23;;;;;;;10.45;8.98;;;;;;;17.54;93.81;100863.28;1709962;81;25758;-81
2022/07/06 00:06:50;;;;;;;9.58;8.53;;;;;;;17.55;93.86;100856.30;1719471;82;27435;-81
2022/07/06 00:09:16;;;;;;;11.78;8.55;;;;;;;17.57;93.79;100856.06;1708808;82;26302;-81
2022/07/06 00:11:45;;;;;;;11.83;8.30;;;;;;;17.57;93.77;100852.84;1725507;81;25540;-81
2022/07/06 00:14:11;;;;;;;12.25;9.08;;;;;;;17.58;93.77;100845.52;1720269;82;26702;-82
2022/07/06 00:16:37;;;;;;;10.03;8.00;;;;;;;17.60;93.75;100850.18;1724791;82;25868;-81
2022/07/06 00:19:04;;;;;;;10.32;8.98;;;;;;;17.63;93.77;100856.52;1716846;82;27442;-81
2022/07/06 00:21:30;;;;;;;10.50;8.03;;;;;;;17.60;93.78;100846.95;1718149;82;25808;-80
2022/07/06 00:23:56;;;;;;;10.85;9.23;;;;;;;17.58;93.76;100843.64;1733830;81;25339;-81
2022/07/06 00:26:23;;;;;;;10.28;9.25;;;;;;;17.58;93.83;100844.16;1733380;81;26171;-81
2022/07/06 00:28:49;;;;;;;9.63;8.65;;;;;;;17.57;93.77;100843.36;1719397;82;25811;-81
2022/07/06 00:31:16;;;;;;;10.93;8.60;;;;;;;17.58;93.73;100844.16;1718717;82;28306;-81
2022/07/06 00:33:43;;;;;;;9.08;8.15;;;;;;;17.59;93.70;100849.38;1716432;82;25824;-82
2022/07/06 00:36:10;;;;;;;11.30;8.78;;;;;;;17.60;93.77;100849.66;1713114;81;26052;-82
2022/07/06 00:38:37;;;;;;;10.25;8.28;;;;;;;17.59;93.70;100851.25;1711715;81;25975;-82
2022/07/06 00:41:04;;;;;;;9.30;8.10;;;;;;;17.60;93.75;100847.47;1721209;81;26583;-80
2022/07/06 00:43:55;;;;;;;10.30;8.50;;;;;;;17.60;93.78;100846.95;1716511;81;27421;-81
2022/07/06 00:46:28;;;;;;;8.73;7.92;;;;;;;17.60;93.72;100840.70;1726653;81;25771;-80
2022/07/06 00:48:56;;;;;;;10.93;8.18;;;;;;;17.60;93.77;100841.53;1738471;81;25342;-81
2022/07/06 00:51:30;;;;;;;10.78;7.97;;;;;;;17.61;93.73;100847.27;1704957;82;25776;-81
2022/07/06 00:54:00;;;;;;;8.70;7.72;;;;;;;17.61;93.75;100842.37;1715378;82;25573;-81
2022/07/06 00:56:31;;;;;;;10.87;8.33;;;;;;;17.61;93.74;100836.95;1721050;81;28313;-81
2022/07/06 00:59:01;;;;;;;10.48;8.23;;;;;;;17.61;93.64;100831.02;1720878;82;25847;-81
2022/07/06 01:01:28;;;;;;;10.58;8.20;;;;;;;17.61;93.72;100831.53;1723176;81;25823;-81
2022/07/06 01:03:54;;;;;;;10.93;8.05;;;;;;;17.60;93.69;100819.03;1705865;82;25835;-81
2022/07/06 01:06:21;;;;;;;10.48;8.28;;;;;;;17.59;93.68;100811.97;1715698;82;25952;-81
2022/07/06 01:08:47;;;;;;;11.12;7.95;;;;;;;17.58;93.56;100805.72;1726102;82;27410;-81
2022/07/06 01:11:14;;;;;;;10.05;7.70;;;;;;;17.59;93.60;100803.84;1723121;81;25810;-81
2022/07/06 01:13:41;;;;;;;9.98;7.50;;;;;;;17.60;93.57;100801.42;1723920;82;25919;-81
2022/07/06 01:16:07;;;;;;;9.25;7.30;;;;;;;17.60;93.43;100797.36;1712671;83;25764;-81
2022/07/06 01:18:34;;;;;;;13.75;8.50;;;;;;;17.59;93.36;100796.55;1717612;82;25742;-80
2022/07/06 01:21:12;;;;;;;9.65;8.75;;;;;;;17.57;93.18;100797.31;1709749;82;27462;-81
2022/07/06 01:23:47;;;;;;;10.15;7.83;;;;;;;17.54;93.01;100793.69;1697347;82;25865;-81
2022/07/06 01:26:18;;;;;;;9.58;8.70;;;;;;;17.53;92.95;100792.57;1707541;81;26423;-81
2022/07/06 01:28:46;;;;;;;10.00;9.05;;;;;;;17.50;92.83;100793.84;1720236;81;25803;-82
2022/07/06 01:31:23;;;;;;;10.68;9.68;;;;;;;17.50;92.83;100795.72;1702085;81;25910;-81
2022/07/06 01:33:55;;;;;;;10.13;9.15;;;;;;;17.45;92.84;100800.42;1709278;81;27501;-81
2022/07/06 01:36:22;;;;;;;10.55;9.55;;;;;;;17.41;93.02;100797.04;1713510;82;25795;-80
2022/07/06 01:38:53;;;;;;;14.05;10.10;;;;;;;17.40;93.04;100801.66;1705154;83;25502;-81
2022/07/06 01:41:20;;;;;;;27.60;9.88;;;;;;;17.40;93.07;100800.82;1707972;82;25795;-81
2022/07/06 01:43:47;;;;;;;67.58;10.78;;;;;;;17.36;93.02;100799.62;1711920;81;25837;-81
2022/07/06 01:46:13;;;;;;;17.07;9.35;;;;;;;17.28;92.87;100806.14;1711789;82;27455;-81
2022/07/06 01:48:40;;;;;;;10.48;9.38;;;;;;;17.23;93.04;100809.23;1687837;82;26569;-81
2022/07/06 01:51:07;;;;;;;10.53;9.53;;;;;;;17.22;93.28;100803.51;1719274;81;25770;-81
2022/07/06 01:53:34;;;;;;;9.85;8.48;;;;;;;17.22;93.30;100800.28;1720685;81;26282;-81
2022/07/06 01:56:01;;;;;;;9.63;8.68;;;;;;;17.20;93.33;100799.69;1719039;82;26435;-81
2022/07/06 01:58:28;;;;;;;15.53;8.73;;;;;;;17.19;93.37;100792.63;1711299;82;27443;-81
2022/07/06 02:00:54;;;;;;;8.48;7.67;;;;;;;17.17;93.35;100794.70;1714782;82;25776;-81
2022/07/06 02:03:20;;;;;;;9.53;8.55;;;;;;;17.18;93.33;100799.59;1728089;81;25795;-81
2022/07/06 02:05:47;;;;;;;11.85;8.35;;;;;;;17.18;93.35;100798.25;1712822;82;25914;-81
2022/07/06 02:08:13;;;;;;;9.93;8.15;;;;;;;17.18;93.27;100790.96;1696601;82;26599;-81
2022/07/06 02:10:40;;;;;;;10.35;8.38;;;;;;;17.18;93.33;100783.36;1718677;81;28797;-81
2022/07/06 02:13:07;;;;;;;8.73;7.72;;;;;;;17.19;93.27;100789.09;1717046;81;26034;-80
2022/07/06 02:15:33;;;;;;;8.08;7.35;;;;;;;17.19;93.16;100795.86;1719783;81;25332;-81
2022/07/06 02:18:00;;;;;;;11.95;8.10;;;;;;;17.17;93.12;100793.35;1729296;81;26220;-81
2022/07/06 02:20:26;;;;;;;10.28;8.40;;;;;;;17.14;93.15;100792.98;1715564;81;25360;-81
2022/07/06 02:22:52;;;;;;;10.93;7.95;;;;;;;17.08;93.10;100798.78;1716053;82;27610;-81
2022/07/06 02:25:19;;;;;;;9.50;8.60;;;;;;;17.01;93.21;100807.48;1726875;81;25878;-81
2022/07/06 02:27:46;;;;;;;8.60;7.58;;;;;;;17.00;93.51;100799.59;1719073;82;25678;-81
2022/07/06 02:30:13;;;;;;;8.88;7.87;;;;;;;16.98;93.48;100799.80;1720245;82;25764;-81
2022/07/06 02:32:39;;;;;;;11.83;8.05;;;;;;;16.96;93.66;100798.68;1717753;81;25878;-81
2022/07/06 02:35:06;;;;;;;11.85;7.92;;;;;;;16.95;93.95;100797.05;1726453;81;27453;-81
2022/07/06 02:37:32;;;;;;;15.30;7.62;;;;;;;16.94;93.85;100792.66;1724602;82;26686;-81
2022/07/06 02:39:59;;;;;;;9.58;8.03;;;;;;;16.94;93.99;100794.53;1711215;82;25873;-81
2022/07/06 02:42:26;;;;;;;13.80;7.87;;;;;;;16.95;94.01;100788.92;1714643;81;25695;-81
2022/07/06 02:44:54;;;;;;;13.98;8.80;;;;;;;16.95;94.00;100782.16;1717122;81;25933;-81
2022/07/06 02:47:20;;;;;;;9.70;7.72;;;;;;;16.94;93.78;100784.55;1638565;85;28292;-80
2022/07/06 02:49:48;;;;;;;7.97;6.53;;;;;;;16.90;93.70;100791.46;1663966;84;25846;-80
2022/07/06 02:52:14;;;;;;;10.10;8.15;;;;;;;16.87;93.70;100792.44;1655622;84;25779;-81
2022/07/06 02:54:41;;;;;;;11.38;7.80;;;;;;;16.84;93.96;100800.99;1662834;85;26245;-81
2022/07/06 02:57:07;;;;;;;10.30;7.37;;;;;;;16.81;94.09;100798.20;1664208;84;25771;-81
2022/07/06 02:59:33;;;;;;;9.48;8.00;;;;;;;16.78;94.19;100793.77;1667140;84;27441;-81
2022/07/06 03:02:00;;;;;;;9.08;8.18;;;;;;;16.78;94.35;100803.23;1663374;84;25864;-82
2022/07/06 03:04:27;;;;;;;8.88;7.10;;;;;;;16.78;94.37;100807.30;1648126;85;26705;-82
2022/07/06 03:06:53;;;;;;;12.35;7.95;;;;;;;16.76;94.45;100806.17;1642127;85;25927;-81
2022/07/06 03:09:20;;;;;;;11.20;7.17;;;;;;;16.73;94.40;100799.01;1642050;85;25798;-82
2022/07/06 03:11:47;;;;;;;8.65;6.95;;;;;;;16.68;94.42;100794.26;1648089;85;27397;-82
2022/07/06 03:14:14;;;;;;;8.73;7.53;;;;;;;16.66;94.73;100792.81;1638662;85;25756;-81
2022/07/06 03:16:42;;;;;;;11.05;7.05;;;;;;;16.66;94.91;100792.81;1646682;85;26353;-83
2022/07/06 03:19:10;;;;;;;9.90;6.58;;;;;;;16.65;94.95;100792.53;1655361;85;25938;-82
2022/07/06 03:21:37;;;;;;;11.78;6.85;;;;;;;16.62;94.93;100793.80;1660355;85;25334;-82
2022/07/06 03:24:04;;;;;;;11.08;6.80;;;;;;;16.60;94.98;100791.84;1656516;85;27451;-82
2022/07/06 03:26:31;;;;;;;10.30;6.75;;;;;;;16.60;95.10;100781.54;1658897;85;26094;-82
2022/07/06 03:28:57;;;;;;;8.73;6.37;;;;;;;16.60;95.15;100772.91;1637191;85;25908;-82
2022/07/06 03:31:24;;;;;;;9.23;6.42;;;;;;;16.65;95.21;100772.25;1658789;85;26212;-82
2022/07/06 03:33:52;;;;;;;9.03;6.55;;;;;;;16.68;94.99;100765.86;1657053;85;25818;-82
2022/07/06 03:36:19;;;;;;;11.28;6.55;;;;;;;16.66;94.81;100774.72;1655702;85;27524;-82
2022/07/06 03:38:46;;;;;;;11.60;6.05;;;;;;;16.64;94.69;100775.47;1666696;85;26007;-82
2022/07/06 03:41:12;;;;;;;11.35;6.75;;;;;;;16.64;94.81;100784.10;1661382;85;25966;-81
2022/07/06 03:43:39;;;;;;;10.35;6.10;;;;;;;16.63;94.68;100780.59;1665630;84;25845;-81
2022/07/06 03:46:05;;;;;;;8.10;6.10;;;;;;;16.62;94.76;100785.69;1644981;85;25909;-81
2022/07/06 03:48:32;;;;;;;9.33;5.67;;;;;;;16.57;94.67;100785.51;1664629;84;27463;-82
2022/07/06 03:50:58;;;;;;;9.43;5.12;;;;;;;16.53;94.65;100787.00;1672231;84;25863;-81
2022/07/06 03:53:25;;;;;;;6.15;4.45;;;;;;;16.51;94.79;100787.75;1648162;85;26689;-80
2022/07/06 03:58:36;;;;;;;6.22;4.33;;;;;;;16.43;94.88;100793.41;1663563;84;25359;-80
2022/07/06 04:01:03;;;;;;;9.43;4.92;;;;;;;16.40;94.96;100794.38;1662566;84;27453;-80
2022/07/06 04:03:30;;;;;;;10.35;4.00;;;;;;;16.38;95.07;100797.28;1665062;84;25836;-80
2022/07/06 04:05:56;;;;;;;8.73;4.10;;;;;;;16.31;94.95;100795.17;1638916;84;25907;-80
2022/07/06 04:08:23;;;;;;;8.13;4.10;;;;;;;16.27;95.12;100795.83;1665692;84;25983;-80
2022/07/06 04:10:51;;;;;;;13.65;3.83;;;;;;;16.21;95.20;100795.64;1661943;85;26179;-81
2022/07/06 04:13:18;;;;;;;6.72;3.87;;;;;;;16.14;95.34;100784.04;1676753;84;27615;-81
2022/07/06 04:15:44;;;;;;;5.53;3.30;;;;;;;16.12;95.50;100780.73;1670873;84;25764;-80
2022/07/06 04:18:10;;;;;;;5.47;2.80;;;;;;;16.12;95.40;100773.97;1670127;83;25986;-80
2022/07/06 04:20:39;;;;;;;6.33;3.12;;;;;;;16.09;95.11;100772.24;1672969;84;26780;-83
2022/07/06 04:23:06;;;;;;;5.22;3.12;;;;;;;16.04;94.93;100772.89;1669871;84;26584;-80
2022/07/06 04:25:32;;;;;;;5.42;3.10;;;;;;;16.04;95.14;100779.65;1667040;84;27507;-80
2022/07/06 04:28:00;;;;;;;6.37;3.77;;;;;;;16.04;95.12;100783.70;1658663;84;25849;-81
2022/07/06 04:30:27;;;;;;;5.17;2.70;;;;;;;16.03;94.94;100787.98;1664273;84;25844;-81
2022/07/06 04:32:55;;;;;;;8.75;3.22;;;;;;;16.03;94.70;100784.77;1673189;83;26039;-80
2022/07/06 04:35:22;;;;;;;3.85;2.92;;;;;;;16.03;94.62;100777.17;1647849;84;25726;-81
2022/07/06 04:37:50;;;;;;;2.83;2.33;;;;;;;15.99;94.72;100771.91;1663648;84;27418;-80
2022/07/06 04:40:18;;;;;;;7.22;3.47;;;;;;;16.00;94.74;100769.48;1664829;84;25797;-80
2022/07/06 04:42:46;;;;;;;6.47;2.95;;;;;;;15.99;94.72;100767.34;1661836;84;25822;-80
2022/07/06 04:45:13;;;;;;;3.00;2.50;;;;;;;15.98;94.34;100771.58;1656839;84;25798;-81
2022/07/06 04:47:40;;;;;;;7.97;2.50;;;;;;;15.96;94.21;100769.63;1663290;84;26043;-80
2022/07/06 04:50:07;;;;;;;8.25;2.83;;;;;;;15.95;94.09;100774.73;1673007;84;27460;-80
2022/07/06 04:52:34;;;;;;;4.62;2.27;;;;;;;15.95;94.11;100776.89;1664812;84;25817;-80
2022/07/06 04:55:01;;;;;;;7.12;2.70;;;;;;;15.98;94.04;100774.28;1677918;84;26348;-81
2022/07/06 04:57:29;;;;;;;8.43;3.05;;;;;;;16.05;93.99;100772.37;1677174;83;26444;-81
2022/07/06 04:59:57;;;;;;;3.45;2.35;;;;;;;16.11;94.35;100776.91;1645975;85;26885;-81
2022/07/06 05:02:23;;;;;;;9.70;2.30;;;;;;;16.15;94.21;100772.20;1665400;84;27478;-80
2022/07/06 05:04:49;;;;;;;7.05;2.40;;;;;;;16.17;93.94;100774.16;1631277;84;25851;-80
2022/07/06 05:07:16;;;;;;;6.20;2.75;;;;;;;16.24;94.12;100771.41;1666854;84;25882;-80
2022/07/06 05:09:43;;;;;;;3.08;2.17;;;;;;;16.33;93.71;100774.16;1659078;84;25736;-80
2022/07/06 05:12:10;;;;;;;3.77;2.08;;;;;;;16.38;93.62;100781.06;1671890;84;26084;-80
2022/07/06 05:14:36;;;;;;;5.60;1.85;;;;;;;16.48;94.52;100783.28;1664548;84;27461;-81
2022/07/06 05:17:04;;;;;;;4.67;2.12;;;;;;;16.55;93.85;100784.10;1665087;84;25939;-80
2022/07/06 05:19:30;;;;;;;3.40;2.47;;;;;;;16.59;92.87;100785.31;1657476;84;26555;-80
2022/07/06 05:21:57;;;;;;;6.25;2.08;;;;;;;16.62;93.19;100782.98;1678142;84;25968;-80
2022/07/06 05:24:23;;;;;;;6.58;2.33;;;;;;;16.68;92.65;100786.14;1672499;84;25868;-80
2022/07/06 05:26:50;;;;;;;3.95;1.82;;;;;;;16.76;92.65;100786.41;1664728;84;27481;-80
2022/07/06 05:29:16;;;;;;;4.75;2.02;;;;;;;16.82;91.92;100786.34;1666304;84;25817;-81
2022/07/06 05:31:43;;;;;;;4.17;2.17;;;;;;;16.85;90.51;100787.23;1665955;84;26596;-82
2022/07/06 05:34:10;;;;;;;5.12;2.12;;;;;;;16.93;91.02;100788.84;1665072;84;25851;-81
2022/07/06 05:36:36;;;;;;;3.98;1.82;;;;;;;17.02;91.22;100794.79;1660997;84;26443;-81
2022/07/06 05:39:05;;;;;;;2.65;1.90;;;;;;;17.15;90.52;100794.11;1673044;84;26016;-81
2022/07/06 05:41:31;;;;;;;5.87;1.98;;;;;;;17.25;89.16;100798.49;1664910;84;26115;-81
2022/07/06 05:43:58;;;;;;;5.20;1.87;;;;;;;17.34;89.26;100793.61;1669944;84;26307;-81
2022/07/06 05:46:25;;;;;;;3.85;1.52;;;;;;;17.45;89.19;100791.50;1661192;84;26298;-82
2022/07/06 05:51:36;;;;;;;4.45;1.47;;;;;;;17.61;87.50;100797.16;1670460;84;27472;-81
2022/07/06 05:54:03;;;;;;;5.85;1.67;;;;;;;17.70;85.95;100796.31;1660936;84;25926;-82
2022/07/06 05:56:29;;;;;;;4.85;1.55;;;;;;;17.78;85.69;100802.77;1660349;84;25811;-81
2022/07/06 05:58:55;;;;;;;3.08;1.10;;;;;;;17.82;85.42;100799.89;1668924;84;25915;-81
2022/07/06 06:01:23;;;;;;;7.67;1.70;;;;;;;17.89;84.52;100805.22;1659396;84;25311;-82
2022/07/06 06:03:51;;;;;;;4.00;1.60;;;;;;;17.96;85.29;100797.84;1669409;84;27623;-82
2022/07/06 06:06:18;;;;;;;4.85;1.45;;;;;;;18.02;84.57;100805.05;1663240;84;26643;-82
2022/07/06 06:08:44;;;;;;;4.15;1.40;;;;;;;18.11;85.00;100798.25;1663731;84;25951;-81
2022/07/06 06:11:11;;;;;;;3.92;1.47;;;;;;;18.21;83.70;100797.98;1667852;84;25964;-81
2022/07/06 06:13:38;;;;;;;3.27;1.62;;;;;;;18.27;83.01;100803.83;1659950;84;25949;-81
2022/07/06 06:16:05;;;;;;;2.80;1.45;;;;;;;18.33;82.86;100808.84;1663982;84;27457;-81
2022/07/06 06:18:31;;;;;;;5.67;1.80;;;;;;;18.43;83.46;100807.77;1664738;84;26151;-82
2022/07/06 06:20:58;;;;;;;4.58;1.50;;;;;;;18.55;83.15;100812.70;1664789;84;25863;-82
2022/07/06 06:23:24;;;;;;;3.17;1.30;;;;;;;18.65;82.12;100820.28;1660767;84;26503;-81
2022/07/06 06:25:50;;;;;;;4.00;1.45;;;;;;;18.74;82.18;100822.92;1668064;84;26030;-82
2022/07/06 06:28:17;;;;;;;1.52;1.10;;;;;;;18.82;80.57;100819.89;1680338;84;27476;-83
2022/07/06 06:30:43;;;;;;;3.30;1.37;;;;;;;18.86;79.55;100821.06;1675433;84;25851;-82
2022/07/06 06:33:18;;;;;;;5.50;1.07;;;;;;;18.90;78.24;100818.17;1667120;85;26662;-83
2022/07/06 06:35:49;;;;;;;6.33;1.17;;;;;;;18.89;77.23;100825.48;1668909;84;26077;-82
2022/07/06 06:38:16;;;;;;;3.60;1.20;;;;;;;18.93;77.74;100817.16;1669194;84;25824;-83
2022/07/06 06:40:43;;;;;;;1.95;1.20;;;;;;;19.03;79.17;100816.58;1670288;84;27477;-82
2022/07/06 06:43:10;;;;;;;1.90;1.47;;;;;;;19.14;78.55;100817.92;1677064;84;25849;-82
2022/07/06 06:45:38;;;;;;;3.83;1.22;;;;;;;19.26;79.76;100812.48;1671446;83;25926;-83
2022/07/06 06:48:05;;;;;;;3.95;1.35;;;;;;;19.40;79.21;100811.71;1693328;83;26021;-82
2022/07/06 06:50:31;;;;;;;2.92;1.20;;;;;;;19.47;78.02;100810.53;1665444;85;25893;-83
2022/07/06 06:52:58;;;;;;;4.37;1.00;;;;;;;19.54;77.88;100810.40;1658656;85;27451;-82
2022/07/06 06:55:24;;;;;;;2.35;1.12;;;;;;;19.61;77.44;100809.19;1679726;84;25353;-82
2022/07/06 06:57:50;;;;;;;5.45;1.10;;;;;;;19.68;76.19;100815.84;1686492;83;25356;-83
2022/07/06 07:00:17;;;;;;;7.00;2.10;;;;;;;19.68;76.32;100817.20;1659745;84;25841;-83
2022/07/06 07:02:45;;;;;;;2.25;1.40;;;;;;;19.72;75.64;100814.29;1664877;85;25996;-83
2022/07/06 07:05:11;;;;;;;3.75;1.30;;;;;;;19.74;77.08;100808.91;1667081;84;28287;-82
2022/07/06 07:07:38;;;;;;;2.05;1.30;;;;;;;19.85;76.32;100806.69;1668848;84;25636;-82
2022/07/06 07:10:06;;;;;;;1.95;1.30;;;;;;;19.98;76.62;100812.37;1665452;84;25854;-82
2022/07/06 07:12:33;;;;;;;4.95;1.65;;;;;;;20.04;74.52;100813.31;1669841;84;25882;-82
2022/07/06 07:15:00;;;;;;;3.65;1.42;;;;;;;20.12;76.22;100807.47;1679422;84;25955;-82
2022/07/06 07:17:27;;;;;;;5.53;1.40;;;;;;;20.26;75.49;100802.86;1655710;84;28301;-82
2022/07/06 07:19:53;;;;;;;3.00;1.10;;;;;;;20.35;73.74;100808.20;1669809;84;25893;-79
2022/07/06 07:22:19;;;;;;;4.47;1.60;;;;;;;20.43;74.91;100804.23;1658570;84;25365;-81
2022/07/06 07:24:47;;;;;;;1.95;1.70;;;;;;;20.55;74.28;100808.53;1673418;84;25625;-81
2022/07/06 07:27:13;;;;;;;3.52;1.40;;;;;;;20.51;73.81;100806.02;1666744;84;25982;-81
2022/07/06 07:29:40;;;;;;;3.33;1.25;;;;;;;20.43;72.82;100807.80;1674732;84;27610;-79
2022/07/06 07:32:06;;;;;;;4.12;1.40;;;;;;;20.29;73.00;100809.19;1672955;84;25966;-80
2022/07/06 07:34:33;;;;;;;4.05;1.35;;;;;;;20.11;72.81;100827.03;1665935;84;25806;-80
2022/07/06 07:36:59;;;;;;;2.02;1.22;;;;;;;20.04;73.63;100818.75;1657171;84;25936;-80
2022/07/06 07:39:27;;;;;;;3.42;1.70;;;;;;;20.08;73.43;100815.27;1671621;84;26105;-80
2022/07/06 07:41:53;;;;;;;2.05;1.30;;;;;;;20.14;71.97;100820.29;1671984;84;27432;-79
2022/07/06 07:44:19;;;;;;;2.08;1.17;;;;;;;20.22;70.98;100811.76;1674554;84;26671;-80
2022/07/06 07:46:45;;;;;;;2.80;1.20;;;;;;;20.33;71.85;100814.95;1677226;84;26451;-80
2022/07/06 07:49:12;;;;;;;2.60;1.20;;;;;;;20.42;71.52;100807.48;1655218;85;25912;-80
2022/07/06 07:51:38;;;;;;;5.17;1.45;;;;;;;20.50;71.59;100811.19;1658201;85;25901;-80
2022/07/06 07:54:05;;;;;;;3.55;0.95;;;;;;;20.62;71.31;100813.28;1653262;85;27463;-81
2022/07/06 07:56:32;;;;;;;2.25;0.90;;;;;;;20.73;69.40;100811.02;1661405;84;26039;-80
2022/07/06 07:58:58;;;;;;;1.25;0.98;;;;;;;20.80;68.30;100804.58;1675987;83;25845;-79
2022/07/06 08:01:26;;;;;;;2.10;1.10;;;;;;;20.85;67.19;100806.83;1672698;83;25828;-80
2022/07/06 08:03:53;;;;;;;1.70;0.85;;;;;;;20.94;67.77;100806.70;1670926;83;25914;-80
2022/07/06 08:06:19;;;;;;;3.33;1.00;;;;;;;21.02;65.00;100802.75;1664484;84;27445;-79
2022/07/06 08:08:45;;;;;;;4.03;1.20;;;;;;;21.06;65.24;100805.29;1669489;83;26046;-80
2022/07/06 08:11:12;;;;;;;4.00;0.93;;;;;;;21.08;64.76;100806.70;1661296;83;25942;-82
2022/07/06 08:13:38;;;;;;;1.67;0.78;;;;;;;21.12;64.67;100805.64;1675329;84;25917;-81
2022/07/06 08:16:04;;;;;;;3.47;0.78;;;;;;;21.17;62.90;100803.00;1679953;84;25854;-82
2022/07/06 08:18:31;;;;;;;1.85;0.72;;;;;;;21.22;62.46;100807.14;1679472;83;27625;-80
2022/07/06 08:20:57;;;;;;;2.20;0.70;;;;;;;21.21;59.17;100804.95;1667503;84;25960;-81
2022/07/06 08:23:23;;;;;;;4.90;0.60;;;;;;;21.23;61.18;100807.44;1660513;84;25774;-80
2022/07/06 08:25:50;;;;;;;3.72;1.20;;;;;;;21.26;60.34;100800.94;1658521;84;26346;-80
2022/07/06 08:28:16;;;;;;;2.30;1.00;;;;;;;21.29;59.97;100799.62;1658637;85;25299;-81
2022/07/06 08:30:42;;;;;;;1.20;0.93;;;;;;;21.31;58.60;100795.57;1680674;84;28294;-80
2022/07/06 08:33:09;;;;;;;3.25;0.93;;;;;;;21.35;58.36;100798.07;1666444;83;25434;-80
2022/07/06 08:35:35;;;;;;;0.45;0.40;;;;;;;21.34;58.30;100801.86;1653934;84;26451;-80
2022/07/06 08:38:01;;;;;;;0.95;0.60;;;;;;;21.31;57.65;100800.19;1665805;84;25748;-81
2022/07/06 08:40:35;;;;;;;1.40;0.68;;;;;;;21.36;57.89;100807.08;1653976;85;25915;-80
2022/07/06 08:43:02;;;;;;;2.25;0.53;;;;;;;21.41;59.08;100815.30;1662990;84;27983;-80
2022/07/06 08:45:30;;;;;;;1.85;0.57;;;;;;;21.45;56.07;100810.46;1665149;83;25899;-80
2022/07/06 08:47:59;;;;;;;0.78;0.57;;;;;;;21.50;55.74;100810.53;1666219;84;25980;-81
2022/07/06 08:50:26;;;;;;;1.12;0.55;;;;;;;21.60;55.97;100805.73;1656961;85;26218;-81
2022/07/06 08:52:53;;;;;;;2.33;0.60;;;;;;;21.72;53.72;100817.36;1674760;84;25856;-81
2022/07/06 08:55:19;;;;;;;1.82;0.50;;;;;;;21.78;53.42;100804.59;1659748;84;27623;-80
2022/07/06 08:57:47;;;;;;;1.22;0.50;;;;;;;21.86;54.63;100819.16;1693662;83;25898;-81
2022/07/06 09:00:15;;;;;;;3.12;0.50;;;;;;;21.88;53.96;100809.66;1688451;83;26024;-80
2022/07/06 09:02:42;;;;;;;1.45;0.60;;;;;;;21.76;51.74;100821.75;1666041;84;25794;-80
2022/07/06 09:05:13;;;;;;;2.10;0.57;;;;;;;21.61;52.00;100827.02;1668901;84;26433;-80
2022/07/06 09:07:41;;;;;;;5.03;1.95;;;;;;;21.41;52.87;100824.31;1689318;84;27540;-80
2022/07/06 09:10:09;;;;;;;3.12;0.53;;;;;;;21.45;52.57;100821.89;1679030;84;26051;-80
2022/07/06 09:12:35;;;;;;;0.98;0.42;;;;;;;21.53;53.14;100816.56;1682547;83;25799;-81
2022/07/06 09:15:01;;;;;;;2.55;0.47;;;;;;;21.63;53.18;100816.14;1679293;83;25795;-79
2022/07/06 09:17:28;;;;;;;3.40;0.68;;;;;;;21.80;54.73;100807.89;1679289;84;25929;-80
2022/07/06 09:19:56;;;;;;;3.22;0.50;;;;;;;21.87;53.60;100817.56;1679465;84;27304;-81
2022/07/06 09:22:32;;;;;;;3.87;0.80;;;;;;;21.86;50.76;100811.81;1679571;84;25857;-80
2022/07/06 09:25:07;;;;;;;1.42;0.42;;;;;;;21.89;51.22;100813.21;1674986;84;25870;-80
2022/07/06 09:27:47;;;;;;;1.75;0.57;;;;;;;21.94;49.71;100799.08;1680946;84;25529;-79
2022/07/06 09:30:14;;;;;;;1.70;0.40;;;;;;;22.03;50.36;100808.45;1687496;84;25947;-81
2022/07/06 09:32:43;;;;;;;2.20;0.50;;;;;;;22.06;51.48;100802.50;1674566;84;28340;-79
2022/07/06 09:35:26;;;;;;;3.58;0.40;;;;;;;22.17;50.13;100802.89;1682820;83;25999;-80
2022/07/06 09:38:08;;;;;;;3.58;0.50;;;;;;;22.27;51.14;100803.52;1678633;84;25901;-80
2022/07/06 09:40:38;;;;;;;1.42;0.30;;;;;;;22.37;52.02;100797.34;1683417;84;25941;-81
2022/07/06 09:43:16;;;;;;;2.55;0.37;;;;;;;22.44;49.34;100798.77;1679627;84;25385;-81
2022/07/06 09:45:46;;;;;;;1.15;0.40;;;;;;;22.34;47.10;100799.21;1691363;83;27457;-80
2022/07/06 09:48:21;;;;;;;2.62;0.50;;;;;;;22.26;47.57;100800.52;1680466;84;25809;-80
2022/07/06 09:50:51;;;;;;;1.95;0.50;;;;;;;22.31;48.48;100803.81;1682076;84;25970;-80
2022/07/06 09:53:19;;;;;;;3.33;0.62;;;;;;;22.43;47.90;100808.59;1679700;84;26031;-81
2022/07/06 09:55:49;;;;;;;6.12;0.60;;;;;;;22.50;49.47;100807.27;1683594;83;25618;-81
2022/07/06 09:58:16;;;;;;;4.03;0.95;;;;;;;22.65;49.87;100812.06;1684475;84;27478;-79
2022/07/06 10:00:45;;;;;;;0.78;0.55;;;;;;;22.74;47.13;100802.31;1671168;84;25798;-79
2022/07/06 10:03:13;;;;;;;0.80;0.33;;;;;;;22.78;47.45;100810.26;1659823;84;25905;-79
2022/07/06 10:05:43;;;;;;;1.22;0.30;;;;;;;22.71;47.93;100802.28;1667737;84;25850;-79
2022/07/06 10:08:10;;;;;;;4.33;0.60;;;;;;;22.68;47.90;100804.19;1659923;84;25917;-80
2022/07/06 10:10:39;;;;;;;3.67;0.60;;;;;;;22.68;47.51;100812.92;1663192;84;27455;-80
2022/07/06 10:13:07;;;;;;;2.75;0.30;;;;;;;22.76;47.79;100804.23;1668994;84;26274;-80
2022/07/06 10:15:36;;;;;;;2.00;0.47;;;;;;;22.85;47.74;100806.23;1667138;84;25953;-80
2022/07/06 10:18:07;;;;;;;1.52;0.40;;;;;;;22.93;46.67;100802.17;1662656;84;26097;-80
2022/07/06 10:20:37;;;;;;;1.30;0.50;;;;;;;23.08;47.69;100807.74;1665034;84;32902;-79
2022/07/06 10:23:07;;;;;;;2.75;0.62;;;;;;;23.22;47.30;100804.01;1678377;83;27471;-79
2022/07/06 10:25:35;;;;;;;2.15;0.50;;;;;;;23.20;46.81;100807.02;1658751;84;26507;-79
2022/07/06 10:28:03;;;;;;;1.05;0.40;;;;;;;23.19;44.60;100813.55;1674380;83;26174;-78
2022/07/06 10:30:31;;;;;;;2.20;0.50;;;;;;;23.03;45.46;100816.73;1681657;84;25934;-79
2022/07/06 10:32:59;;;;;;;1.47;0.47;;;;;;;22.90;46.97;100822.64;1679510;83;25406;-80
2022/07/06 10:35:26;;;;;;;1.65;0.40;;;;;;;22.75;44.53;100829.35;1672231;84;27409;-80
2022/07/06 10:38:09;;;;;;;0.95;0.40;;;;;;;22.58;43.79;100821.80;1680557;84;26005;-79
2022/07/06 10:43:36;;;;;;;4.30;0.60;;;;;;;22.73;46.15;100823.90;1683891;83;25968;-80
2022/07/06 10:46:11;;;;;;;3.45;0.72;;;;;;;22.83;46.18;100831.62;1657113;84;26572;-79
2022/07/06 10:48:43;;;;;;;1.45;0.80;;;;;;;22.66;46.05;100827.37;1665068;84;28335;-80
2022/07/06 10:51:28;;;;;;;4.03;0.42;;;;;;;22.49;45.93;100825.28;1662433;84;25909;-79
2022/07/06 10:54:07;;;;;;;1.27;0.57;;;;;;;22.35;45.94;100828.97;1667708;84;25782;-79
2022/07/06 10:56:39;;;;;;;1.85;0.50;;;;;;;22.48;47.63;100827.72;1670546;84;26667;-82
2022/07/06 10:59:21;;;;;;;1.65;0.47;;;;;;;22.63;46.22;100828.72;1662942;84;25313;-80
2022/07/06 11:02:17;;;;;;;2.17;0.50;;;;;;;22.77;45.60;100820.39;1666994;84;27589;-79
2022/07/06 11:04:46;;;;;;;2.95;0.30;;;;;;;22.92;44.26;100810.91;1667916;84;25832;-80
2022/07/06 11:07:18;;;;;;;2.58;1.00;;;;;;;23.11;46.47;100818.16;1668431;84;25818;-79
2022/07/06 11:09:59;;;;;;;1.67;0.42;;;;;;;23.08;44.23;100820.58;1670183;84;25850;-80
2022/07/06 11:12:26;;;;;;;0.65;0.30;;;;;;;22.94;43.69;100822.96;1666945;84;26031;-79
2022/07/06 11:14:53;;;;;;;3.55;0.40;;;;;;;22.93;42.97;100815.83;1671132;84;28323;-80
2022/07/06 11:17:20;;;;;;;0.53;0.40;;;;;;;23.01;43.89;100822.17;1659954;84;25935;-79
2022/07/06 11:20:11;;;;;;;3.10;0.40;;;;;;;23.16;44.74;100817.38;1662066;84;25840;-80
2022/07/06 11:22:38;;;;;;;;;;;;;;;23.34;45.38;100808.74;1667557;84;26517;-79
2022/07/06 11:25:06;;;;;;;1.20;0.35;;;;;;;23.49;43.79;100809.65;1667860;84;25952;-79
2022/07/06 11:27:34;;;;;;;1.92;0.40;;;;;;;23.46;43.95;100819.73;1662570;84;28307;-81
2022/07/06 11:30:01;;;;;;;1.40;0.40;;;;;;;23.55;43.25;100824.98;1662710;84;25832;-79
2022/07/06 11:32:28;;;;;;;3.47;0.50;;;;;;;23.64;44.79;100811.62;1666094;84;26562;-79
2022/07/06 11:34:56;;;;;;;0.65;0.30;;;;;;;23.73;43.70;100819.06;1666518;84;26304;-79
2022/07/06 11:37:23;;;;;;;1.62;0.33;;;;;;;23.78;45.09;100800.45;1666476;84;26310;-79